Terminal Aerodrome Forecast
Issued by NWS Chicago, IL

Home | Current Version | Previous Version | Text Only | Print | Product List | Glossary Off
Versions: 1 2 3 4 5 6 7 8 9 10 11 12 13 14 15 16 17 18 19 20 21 22 23 24 25 26 27 28 29 30 31 32

000
FTUS43 KLOT 020917 AAA
TAFRFD
TAF AMD
KRFD 020917Z 0209/0306 24010KT P6SM SCT250
     FM021600 23016G29KT P6SM SCT250
     FM022300 23017G26KT P6SM VCSH SCT080 BKN180
      TEMPO 0301/0303 3SM TSRA BKN040CB
     FM030400 28008KT P6SM VCSH BKN040 BKN100=

USA.gov is the U.S. government's official web portal to all federal, state and local government web resources and services.